createdAt,value
2023-02-24T00:01:37.729Z,49.78
2023-02-24T00:04:08.433Z,50.25
2023-02-24T00:06:38.736Z,54.40
2023-02-24T00:09:11.716Z,48.63
2023-02-24T00:11:43.396Z,50.58
2023-02-24T00:14:15.888Z,44.60
2023-02-24T00:16:45.314Z,50.78
2023-02-24T00:19:16.287Z,46.42
2023-02-24T00:21:45.049Z,49.03
2023-02-24T00:24:14.475Z,47.95
2023-02-24T00:26:42.924Z,45.65
2023-02-24T00:29:13.548Z,46.78
2023-02-24T00:31:43.007Z,47.90
2023-02-24T00:34:13.618Z,42.63
2023-02-24T00:36:41.790Z,44.55
2023-02-24T00:39:10.798Z,46.38
2023-02-24T00:41:41.653Z,43.35
2023-02-24T00:44:11.788Z,44.70
2023-02-24T00:46:41.997Z,43.08
2023-02-24T00:49:13.227Z,42.28
2023-02-24T00:51:43.076Z,48.17
2023-02-24T00:54:14.823Z,38.03
2023-02-24T00:56:45.266Z,41.92
2023-02-24T00:59:14.552Z,40.35
2023-02-24T01:01:43.956Z,38.15
2023-02-24T01:04:12.739Z,40.17
2023-02-24T01:06:44.920Z,40.67
2023-02-24T01:09:14.760Z,40.72
2023-02-24T01:12:17.393Z,35.80
2023-02-24T01:14:47.609Z,41.58
2023-02-24T01:17:16.328Z,41.08
2023-02-24T01:19:44.774Z,40.35
2023-02-24T01:22:15.356Z,41.95
2023-02-24T01:24:45.425Z,39.15
2023-02-24T01:27:17.360Z,44.28
2023-02-24T01:29:45.410Z,41.33
2023-02-24T01:32:18.605Z,41.42
2023-02-24T01:34:47.291Z,39.25
2023-02-24T01:37:16.940Z,39.05
2023-02-24T01:39:46.384Z,40.88
2023-02-24T01:42:19.771Z,40.45
2023-02-24T01:45:22.753Z,38.83
2023-02-24T01:47:51.681Z,45.28
2023-02-24T01:50:23.906Z,37.60
2023-02-24T01:52:56.088Z,40.83
2023-02-24T01:55:29.171Z,38.17
2023-02-24T01:58:01.548Z,39.75
2023-02-24T02:00:37.488Z,37.83
2023-02-24T02:03:17.417Z,38.58
2023-02-24T02:05:48.519Z,35.80
2023-02-24T02:08:18.107Z,43.20
2023-02-24T02:10:46.776Z,40.00
2023-02-24T02:13:21.528Z,37.20
2023-02-24T02:16:02.866Z,39.35
2023-02-24T02:18:38.294Z,45.15
2023-02-24T02:21:40.261Z,44.35
2023-02-24T02:24:25.867Z,40.05
2023-02-24T02:27:12.141Z,44.08
2023-02-24T02:30:27.034Z,42.35
2023-02-24T02:33:21.533Z,40.38
2023-02-24T02:36:00.529Z,40.83
2023-02-24T02:38:37.129Z,38.75
2023-02-24T02:41:13.482Z,40.85
2023-02-24T02:43:49.050Z,42.25
2023-02-24T02:46:34.763Z,40.47
2023-02-24T02:49:12.808Z,39.25
2023-02-24T02:51:51.752Z,41.15
2023-02-24T02:54:27.364Z,42.25
2023-02-24T02:57:01.361Z,40.17
2023-02-24T02:59:33.281Z,40.42
2023-02-24T03:02:11.535Z,39.27
2023-02-24T03:04:43.513Z,35.78
2023-02-24T03:07:15.547Z,39.10
2023-02-24T03:09:49.547Z,39.97
2023-02-24T03:12:22.297Z,39.58
2023-02-24T03:14:53.542Z,40.05
2023-02-24T03:17:25.737Z,43.05
2023-02-24T03:20:01.764Z,40.55
2023-02-24T03:22:37.591Z,37.38
2023-02-24T03:25:06.663Z,40.22
2023-02-24T03:27:42.893Z,39.90
2023-02-24T03:30:17.805Z,38.60
2023-02-24T03:32:55.862Z,36.60
2023-02-24T03:35:27.308Z,40.72
2023-02-24T03:37:59.321Z,42.63
2023-02-24T03:40:36.210Z,36.57
2023-02-24T03:43:09.239Z,39.53
2023-02-24T03:45:39.387Z,40.38
2023-02-24T03:48:11.938Z,37.83
2023-02-24T03:50:40.920Z,40.17
2023-02-24T03:53:30.507Z,39.13
2023-02-24T03:56:05.868Z,40.25
2023-02-24T03:58:46.175Z,40.53
2023-02-24T04:01:21.390Z,39.35
2023-02-24T04:04:01.367Z,39.30
2023-02-24T04:06:35.278Z,40.92
2023-02-24T04:09:14.014Z,35.58
2023-02-24T04:11:48.742Z,37.78
2023-02-24T04:14:24.845Z,40.33
2023-02-24T04:17:01.022Z,42.22
2023-02-24T04:19:32.339Z,36.90
2023-02-24T04:22:01.721Z,36.78
2023-02-24T04:24:33.785Z,43.05
2023-02-24T04:27:06.374Z,42.80
2023-02-24T04:29:39.122Z,39.58
2023-02-24T04:32:09.784Z,42.10
2023-02-24T04:34:37.762Z,38.78
2023-02-24T04:37:06.336Z,42.75
2023-02-24T04:39:38.463Z,36.95
2023-02-24T04:42:06.679Z,41.90
2023-02-24T04:44:34.875Z,42.60
2023-02-24T04:47:03.849Z,42.15
2023-02-24T04:49:31.630Z,38.42
2023-02-24T04:51:59.340Z,39.38
2023-02-24T04:54:29.626Z,41.47
2023-02-24T04:56:59.488Z,38.95
2023-02-24T04:59:28.616Z,42.28
2023-02-24T05:02:01.360Z,43.08
2023-02-24T05:06:59.369Z,40.65
2023-02-24T05:09:30.131Z,39.80
2023-02-24T05:12:00.408Z,35.80
2023-02-24T05:14:28.856Z,40.55
2023-02-24T05:17:00.303Z,40.30
2023-02-24T05:19:45.625Z,38.67
2023-02-24T05:22:14.389Z,40.70
2023-02-24T05:24:42.272Z,43.97
2023-02-24T05:27:11.359Z,40.85
2023-02-24T05:29:40.501Z,39.38
2023-02-24T05:32:08.493Z,37.60
2023-02-24T05:34:39.142Z,38.03
2023-02-24T05:37:10.194Z,40.63
2023-02-24T05:39:38.479Z,35.67
2023-02-24T05:42:07.300Z,40.90
2023-02-24T05:44:37.065Z,45.35
2023-02-24T05:47:05.787Z,43.67
2023-02-24T05:49:35.615Z,44.58
2023-02-24T05:52:08.158Z,43.42
2023-02-24T05:54:38.714Z,42.53
2023-02-24T05:57:09.006Z,41.13
2023-02-24T05:59:38.690Z,45.35
2023-02-24T06:02:09.408Z,39.40
2023-02-24T06:04:46.728Z,41.55
2023-02-24T06:07:19.007Z,43.25
2023-02-24T06:09:50.454Z,41.35
2023-02-24T06:12:19.568Z,39.05
2023-02-24T06:14:49.202Z,40.17
2023-02-24T06:17:18.711Z,40.72
2023-02-24T06:19:48.042Z,42.35
2023-02-24T06:22:19.103Z,42.47
2023-02-24T06:24:49.388Z,42.33
2023-02-24T06:27:19.890Z,43.58
2023-02-24T06:29:51.148Z,43.50
2023-02-24T06:32:19.913Z,40.25
2023-02-24T06:34:47.799Z,44.28
2023-02-24T06:37:18.277Z,42.45
2023-02-24T06:39:46.554Z,41.75
2023-02-24T06:42:14.925Z,43.83
2023-02-24T06:44:42.971Z,43.10
2023-02-24T06:47:14.816Z,41.15
2023-02-24T06:49:43.175Z,43.00
2023-02-24T06:52:18.315Z,42.90
2023-02-24T06:54:48.951Z,43.38
2023-02-24T06:57:16.701Z,45.38
2023-02-24T06:59:46.070Z,44.17
2023-02-24T07:02:17.595Z,49.80
2023-02-24T07:04:45.628Z,44.47
2023-02-24T07:07:14.810Z,37.65
2023-02-24T07:09:45.388Z,41.17
2023-02-24T07:12:13.621Z,41.00
2023-02-24T07:14:41.621Z,40.47
2023-02-24T07:17:10.338Z,42.92
2023-02-24T07:19:39.699Z,40.97
2023-02-24T07:22:07.486Z,40.58
2023-02-24T07:24:37.148Z,41.70
2023-02-24T07:27:07.500Z,38.55
2023-02-24T07:29:37.786Z,48.35
2023-02-24T07:32:08.639Z,45.45
2023-02-24T07:34:40.007Z,47.97
2023-02-24T07:37:10.802Z,47.28
2023-02-24T07:39:39.636Z,43.65
2023-02-24T07:42:08.972Z,42.50
2023-02-24T07:44:38.958Z,49.70
2023-02-24T07:47:08.068Z,41.22
2023-02-24T07:49:36.617Z,43.08
2023-02-24T07:52:08.150Z,44.87
2023-02-24T07:54:39.438Z,46.08
2023-02-24T07:57:13.553Z,46.13
2023-02-24T07:59:47.032Z,45.78
2023-02-24T08:02:15.415Z,50.00
2023-02-24T08:04:49.867Z,49.22
2023-02-24T08:07:17.924Z,49.85
2023-02-24T08:10:03.809Z,49.40
2023-02-24T08:12:34.400Z,44.42
2023-02-24T08:15:08.873Z,50.30
2023-02-24T08:17:36.654Z,43.30
2023-02-24T08:20:18.610Z,41.10
2023-02-24T08:22:47.640Z,42.53
2023-02-24T08:25:19.591Z,41.88
2023-02-24T08:28:06.879Z,54.27
2023-02-24T08:30:39.982Z,41.63
2023-02-24T08:33:10.370Z,41.78
2023-02-24T08:35:44.597Z,42.40
2023-02-24T08:38:15.511Z,41.20
2023-02-24T08:40:52.359Z,46.85
2023-02-24T08:43:32.699Z,43.17
2023-02-24T08:46:05.981Z,40.30
2023-02-24T08:48:38.522Z,41.47
2023-02-24T08:51:12.792Z,40.95
2023-02-24T08:53:41.455Z,44.45
2023-02-24T08:56:12.893Z,44.83
2023-02-24T08:58:47.036Z,38.00
2023-02-24T09:01:24.235Z,38.85
2023-02-24T09:03:55.437Z,42.53
2023-02-24T09:06:26.953Z,36.90
2023-02-24T09:09:11.833Z,38.47
2023-02-24T09:11:44.176Z,34.35
2023-02-24T09:14:32.217Z,33.97
2023-02-24T09:17:03.985Z,36.80
2023-02-24T09:20:01.970Z,34.83
2023-02-24T09:22:40.853Z,38.30
2023-02-24T09:25:21.795Z,37.85
2023-02-24T09:27:56.322Z,35.30
2023-02-24T09:30:37.052Z,36.33
2023-02-24T09:33:18.877Z,38.42
2023-02-24T09:35:48.653Z,37.67
2023-02-24T09:38:18.856Z,35.35
2023-02-24T09:40:52.321Z,34.55
2023-02-24T09:43:25.288Z,37.10
2023-02-24T09:46:01.929Z,35.05
2023-02-24T09:48:44.651Z,34.88
2023-02-24T09:51:21.939Z,39.92
2023-02-24T09:53:56.762Z,39.50
2023-02-24T09:56:37.257Z,42.25
2023-02-24T09:59:26.460Z,39.00
2023-02-24T10:02:03.662Z,41.58
2023-02-24T10:04:49.180Z,47.00
2023-02-24T10:07:19.192Z,42.50
2023-02-24T10:09:54.318Z,40.20
2023-02-24T10:12:28.908Z,35.30
2023-02-24T10:15:17.434Z,39.88
2023-02-24T10:17:50.196Z,40.10
2023-02-24T10:23:04.298Z,37.88
2023-02-24T10:25:53.970Z,33.28
2023-02-24T10:28:36.044Z,31.08
2023-02-24T10:31:24.807Z,36.45
2023-02-24T10:33:57.995Z,35.65
2023-02-24T10:36:35.113Z,37.30
2023-02-24T10:39:08.606Z,36.67
2023-02-24T10:41:45.976Z,34.05
2023-02-24T10:44:20.511Z,35.60
2023-02-24T10:47:11.232Z,32.85
2023-02-24T10:49:50.807Z,31.25
2023-02-24T10:52:36.598Z,26.90
2023-02-24T10:55:24.272Z,26.77
2023-02-24T10:58:00.592Z,30.42
2023-02-24T11:00:51.731Z,26.67
2023-02-24T11:03:36.111Z,21.48
2023-02-24T11:06:30.416Z,29.77
2023-02-24T11:09:19.164Z,26.65
2023-02-24T11:12:06.475Z,27.75
2023-02-24T11:15:08.934Z,29.75
2023-02-24T11:17:39.307Z,27.67
2023-02-24T11:20:22.773Z,28.80
2023-02-24T11:22:55.845Z,32.00
2023-02-24T11:25:27.504Z,26.98
2023-02-24T11:27:57.072Z,26.92
2023-02-24T11:30:41.060Z,26.80
2023-02-24T11:33:22.212Z,30.13
2023-02-24T11:36:05.256Z,27.58
2023-02-24T11:41:16.055Z,24.88
2023-02-24T11:43:48.934Z,25.63
2023-02-24T11:46:22.123Z,28.15
2023-02-24T11:48:57.038Z,29.02
2023-02-24T11:51:30.688Z,28.67
2023-02-24T11:54:03.049Z,27.75
2023-02-24T11:56:35.222Z,25.90
2023-02-24T11:59:08.851Z,26.15
2023-02-24T12:01:42.429Z,24.88
2023-02-24T12:04:18.702Z,23.00
2023-02-24T12:06:56.203Z,23.75
2023-02-24T12:09:31.807Z,25.55
2023-02-24T12:12:04.333Z,27.75
2023-02-24T12:14:37.401Z,20.90
2023-02-24T12:17:18.018Z,24.15
2023-02-24T12:20:05.643Z,22.30
2023-02-24T12:22:46.135Z,24.52
2023-02-24T12:25:16.729Z,23.65
2023-02-24T12:27:58.825Z,24.30
2023-02-24T12:30:38.790Z,23.27
2023-02-24T12:33:31.010Z,23.90
2023-02-24T12:36:06.181Z,24.85
2023-02-24T12:38:46.268Z,25.15
2023-02-24T12:41:29.260Z,27.48
2023-02-24T12:44:03.580Z,26.83
2023-02-24T12:46:36.972Z,23.92
2023-02-24T12:49:26.030Z,16.52
2023-02-24T12:52:07.606Z,18.80
2023-02-24T12:54:44.935Z,13.73
2023-02-24T12:57:19.574Z,18.30
2023-02-24T12:59:48.448Z,18.33
2023-02-24T13:02:29.159Z,16.95
2023-02-24T13:05:06.035Z,20.40
2023-02-24T13:07:49.548Z,21.40
2023-02-24T13:10:33.843Z,19.70
2023-02-24T13:13:12.929Z,17.35
2023-02-24T13:15:51.190Z,17.17
2023-02-24T13:18:25.475Z,14.93
2023-02-24T13:21:04.957Z,16.55
2023-02-24T13:23:33.240Z,16.13
2023-02-24T13:26:02.658Z,13.45
2023-02-24T13:28:33.320Z,14.07
2023-02-24T13:31:03.732Z,12.95
2023-02-24T13:33:34.356Z,13.48
2023-02-24T13:36:14.749Z,10.88
2023-02-24T13:38:44.680Z,14.40
2023-02-24T13:41:37.872Z,9.75
2023-02-24T13:46:59.498Z,9.80
2023-02-24T13:49:38.268Z,11.73
2023-02-24T13:52:21.440Z,11.85
2023-02-24T13:55:05.497Z,9.18
2023-02-24T13:57:49.078Z,12.85
2023-02-24T14:00:28.502Z,9.32
2023-02-24T14:02:57.677Z,11.23
2023-02-24T14:05:30.089Z,10.60
2023-02-24T14:07:58.992Z,9.10
2023-02-24T14:10:29.559Z,13.18
2023-02-24T14:13:05.145Z,11.80
2023-02-24T14:15:34.690Z,10.60
2023-02-24T14:18:04.058Z,10.88
2023-02-24T14:20:34.652Z,9.80
2023-02-24T14:23:04.012Z,12.10
2023-02-24T14:25:38.504Z,10.48
2023-02-24T14:28:08.123Z,10.70
2023-02-24T14:30:38.466Z,11.68
2023-02-24T14:33:08.523Z,9.57
2023-02-24T14:35:40.476Z,11.73
2023-02-24T14:38:18.532Z,13.98
2023-02-24T14:40:48.912Z,10.30
2023-02-24T14:43:18.168Z,9.75
2023-02-24T14:45:50.532Z,10.02
2023-02-24T14:48:24.654Z,10.52
2023-02-24T14:50:53.940Z,14.05
2023-02-24T14:53:25.009Z,12.32
2023-02-24T14:55:57.090Z,10.70
2023-02-24T14:58:31.152Z,9.27
2023-02-24T15:01:04.024Z,8.95
2023-02-24T15:03:47.545Z,13.43
2023-02-24T15:06:23.832Z,13.63
2023-02-24T15:08:59.445Z,10.18
2023-02-24T15:11:29.832Z,13.73
2023-02-24T15:14:01.625Z,7.55
2023-02-24T15:16:34.786Z,8.05
2023-02-24T15:19:03.039Z,9.02
2023-02-24T15:21:33.260Z,9.00
2023-02-24T15:24:03.127Z,7.88
2023-02-24T15:26:33.276Z,11.00
2023-02-24T15:29:04.300Z,7.22
2023-02-24T15:31:32.403Z,7.80
2023-02-24T15:34:02.169Z,8.27
2023-02-24T15:36:33.897Z,13.02
2023-02-24T15:39:04.765Z,6.70
2023-02-24T15:41:43.896Z,8.13
2023-02-24T15:44:27.645Z,8.00
2023-02-24T15:46:56.356Z,10.25
2023-02-24T15:49:24.374Z,8.48
2023-02-24T15:51:54.508Z,7.03
2023-02-24T15:54:29.891Z,8.52
2023-02-24T15:56:59.142Z,9.80
2023-02-24T15:59:29.291Z,11.77
2023-02-24T16:01:57.490Z,8.65
2023-02-24T16:04:27.592Z,7.85
2023-02-24T16:06:58.463Z,8.80
2023-02-24T16:09:33.668Z,8.82
2023-02-24T16:12:03.646Z,12.98
2023-02-24T16:14:34.220Z,10.90
2023-02-24T16:17:05.291Z,14.35
2023-02-24T16:19:33.225Z,8.95
2023-02-24T16:22:01.163Z,9.93
2023-02-24T16:24:29.226Z,10.80
2023-02-24T16:26:57.221Z,10.18
2023-02-24T16:29:25.302Z,12.27
2023-02-24T16:31:54.839Z,12.43
2023-02-24T16:34:22.856Z,13.27
2023-02-24T16:36:51.895Z,10.50
2023-02-24T16:39:19.931Z,14.07
2023-02-24T16:41:47.916Z,17.50
2023-02-24T16:44:15.762Z,20.85
2023-02-24T16:46:45.539Z,17.17
2023-02-24T16:49:19.852Z,11.80
2023-02-24T16:51:48.264Z,9.65
2023-02-24T16:54:16.292Z,10.40
2023-02-24T16:56:45.350Z,13.40
2023-02-24T16:59:13.358Z,11.73
2023-02-24T17:01:41.532Z,12.68
2023-02-24T17:04:11.272Z,13.93
2023-02-24T17:06:40.799Z,11.75
2023-02-24T17:09:08.946Z,12.90
2023-02-24T17:11:37.148Z,13.80
2023-02-24T17:14:05.161Z,14.93
2023-02-24T17:16:33.489Z,14.95
2023-02-24T17:19:01.646Z,11.32
2023-02-24T17:21:29.718Z,13.90
2023-02-24T17:23:59.215Z,12.57
2023-02-24T17:26:27.541Z,14.50
2023-02-24T17:28:55.707Z,14.15
2023-02-24T17:31:24.141Z,17.50
2023-02-24T17:33:52.391Z,26.90
2023-02-24T17:36:21.109Z,27.98
2023-02-24T17:38:49.561Z,21.30
2023-02-24T17:41:18.989Z,118.07
2023-02-24T17:43:47.171Z,62.10
2023-02-24T17:46:15.417Z,14.77
2023-02-24T17:48:43.498Z,15.50
2023-02-24T17:51:14.706Z,13.40
2023-02-24T17:53:43.031Z,11.40
2023-02-24T17:56:12.006Z,11.73
2023-02-24T17:58:42.162Z,14.68
2023-02-24T18:01:10.259Z,9.73
2023-02-24T18:03:38.509Z,11.50
2023-02-24T18:06:08.830Z,10.93
2023-02-24T18:08:37.905Z,10.43
2023-02-24T18:11:07.593Z,11.52
2023-02-24T18:13:36.057Z,7.68
2023-02-24T18:16:09.664Z,10.70
2023-02-24T18:18:38.068Z,7.45
2023-02-24T18:21:08.614Z,6.85
2023-02-24T18:23:38.304Z,5.85
2023-02-24T18:26:08.243Z,7.40
2023-02-24T18:28:36.711Z,7.50
2023-02-24T18:31:13.842Z,5.78
2023-02-24T18:33:42.051Z,7.70
2023-02-24T18:36:11.357Z,5.95
2023-02-24T18:38:39.607Z,8.25
2023-02-24T18:41:09.128Z,7.28
2023-02-24T18:43:37.441Z,5.97
2023-02-24T18:46:07.564Z,6.97
2023-02-24T18:48:37.626Z,6.32
2023-02-24T18:51:06.846Z,5.15
2023-02-24T18:53:37.017Z,7.05
2023-02-24T18:56:06.733Z,3.65
2023-02-24T18:58:35.064Z,6.80
2023-02-24T19:01:03.049Z,6.38
2023-02-24T19:03:31.029Z,5.85
2023-02-24T19:06:00.429Z,5.55
2023-02-24T19:08:28.507Z,6.43
2023-02-24T19:10:56.470Z,7.13
2023-02-24T19:13:25.180Z,5.60
2023-02-24T19:15:53.257Z,4.45
2023-02-24T19:18:21.372Z,5.75
2023-02-24T19:20:49.552Z,5.88
2023-02-24T19:23:18.928Z,6.38
2023-02-24T19:25:46.849Z,5.97
2023-02-24T19:28:14.677Z,3.47
2023-02-24T19:30:42.805Z,10.40
2023-02-24T19:33:10.909Z,15.05
2023-02-24T19:35:41.111Z,35.80
2023-02-24T19:38:09.458Z,65.28
2023-02-24T19:40:38.808Z,38.50
2023-02-24T19:43:06.794Z,43.17
2023-02-24T19:45:35.081Z,36.10
2023-02-24T19:48:03.023Z,54.58
2023-02-24T19:50:31.026Z,67.82
2023-02-24T19:52:58.942Z,32.05
2023-02-24T19:55:27.017Z,90.13
2023-02-24T19:57:56.445Z,49.63
2023-02-24T20:00:25.073Z,68.60
2023-02-24T20:02:53.437Z,35.70
2023-02-24T20:05:21.422Z,74.80
2023-02-24T20:07:49.581Z,52.53
2023-02-24T20:10:18.512Z,66.93
2023-02-24T20:12:46.430Z,42.95
2023-02-24T20:15:15.766Z,108.65
2023-02-24T20:17:43.626Z,38.58
2023-02-24T20:20:13.223Z,68.53
2023-02-24T20:22:41.414Z,31.77
2023-02-24T20:25:10.127Z,62.72
2023-02-24T20:27:38.122Z,106.60
2023-02-24T20:30:06.952Z,27.90
2023-02-24T20:32:36.294Z,24.05
2023-02-24T20:35:04.346Z,18.65
2023-02-24T20:37:32.313Z,17.65
2023-02-24T20:40:00.376Z,14.25
2023-02-24T20:42:29.081Z,9.63
2023-02-24T20:44:57.558Z,14.55
2023-02-24T20:47:26.101Z,11.52
2023-02-24T20:49:55.546Z,8.32
2023-02-24T20:52:23.904Z,7.97
2023-02-24T20:54:52.052Z,8.23
2023-02-24T20:57:20.110Z,5.68
2023-02-24T21:00:02.542Z,6.43
2023-02-24T21:05:00.612Z,4.28
2023-02-24T21:07:28.618Z,9.82
2023-02-24T21:09:56.724Z,6.32
2023-02-24T21:12:24.768Z,6.28
2023-02-24T21:14:52.804Z,7.07
2023-02-24T21:17:20.869Z,6.68
2023-02-24T21:19:49.843Z,6.35
2023-02-24T21:22:19.217Z,6.78
2023-02-24T21:24:47.347Z,6.38
2023-02-24T21:27:15.293Z,7.72
2023-02-24T21:29:43.411Z,8.60
2023-02-24T21:32:11.453Z,8.77
2023-02-24T21:34:39.430Z,6.35
2023-02-24T21:37:07.413Z,7.82
2023-02-24T21:39:37.060Z,13.60
2023-02-24T21:42:05.191Z,13.68
2023-02-24T21:44:33.199Z,11.75
2023-02-24T21:47:01.018Z,8.35
2023-02-24T21:49:30.384Z,12.00
2023-02-24T21:51:58.285Z,9.40
2023-02-24T21:54:26.582Z,9.80
2023-02-24T21:56:55.924Z,8.70
2023-02-24T21:59:23.997Z,11.52
2023-02-24T22:01:51.999Z,9.02
2023-02-24T22:04:20.303Z,8.73
2023-02-24T22:06:48.272Z,10.07
2023-02-24T22:09:19.845Z,8.05
2023-02-24T22:11:49.402Z,9.60
2023-02-24T22:14:18.636Z,9.68
2023-02-24T22:16:46.439Z,9.07
2023-02-24T22:19:14.519Z,6.88
2023-02-24T22:21:42.969Z,9.68
2023-02-24T22:24:13.950Z,9.05
2023-02-24T22:26:42.604Z,9.05
2023-02-24T22:29:10.680Z,7.03
2023-02-24T22:31:43.422Z,10.88
2023-02-24T22:34:12.346Z,8.23
2023-02-24T22:36:40.087Z,7.72
2023-02-24T22:39:09.327Z,7.93
2023-02-24T22:41:38.184Z,9.07
2023-02-24T22:44:07.366Z,12.65
2023-02-24T22:46:37.125Z,10.63
2023-02-24T22:49:06.768Z,9.30
2023-02-24T22:51:34.915Z,12.10
2023-02-24T22:54:03.017Z,8.68
2023-02-24T22:56:31.867Z,9.95
2023-02-24T22:59:00.632Z,9.75
2023-02-24T23:01:29.980Z,12.82
2023-02-24T23:04:00.369Z,10.70
2023-02-24T23:06:30.112Z,15.20
2023-02-24T23:08:59.884Z,8.75
2023-02-24T23:11:30.611Z,6.75
2023-02-24T23:14:00.319Z,7.10
2023-02-24T23:16:31.665Z,7.95
2023-02-24T23:19:00.915Z,8.23
2023-02-24T23:21:34.942Z,7.88
2023-02-24T23:24:04.119Z,7.88
2023-02-24T23:26:33.049Z,4.93
2023-02-24T23:29:00.752Z,6.10
2023-02-24T23:31:29.664Z,6.57
2023-02-24T23:33:57.940Z,7.03
2023-02-24T23:36:26.724Z,6.18
2023-02-24T23:38:57.515Z,9.05
2023-02-24T23:41:25.400Z,8.27
2023-02-24T23:43:53.377Z,7.18
2023-02-24T23:46:21.536Z,6.05
2023-02-24T23:48:52.353Z,6.35
2023-02-24T23:51:20.607Z,9.55
2023-02-24T23:53:49.512Z,5.78
2023-02-24T23:56:20.599Z,5.63
2023-02-24T23:58:51.687Z,4.28
